Private Wetterstation Wechselburg
Wetterdaten: Samstag, 15.02.2014
Datum Zeit Temp. +2m Bodentemp. Temp.+5cm Temp. Wind Windchill X Diff Temp. Feuchte +2m Feuchte +5cm Sonnenschein Luftdruck Regen Wind Richtung Richtung Sonnenschein UV Taupunkt Windchill Windben
15.02.2014 00:00 6,0 C 13,1 C 5,2 C 6,1 C 6,1 C 0,1 C 62 % 69 % 0 % 1008,8 hPa 0,0 l/m 1,1 km/h (1 Bft) NO 45 0 min 0,0 UV-I -0,7 C 6,1 C 0,0 km/h (0 Bft)
15.02.2014 00:05 6,0 C 13,1 C 5,3 C 6,1 C 6,1 C 0,1 C 61 % 69 % 0 % 1008,8 hPa 0,0 l/m 1,8 km/h (1 Bft) N-NO 22 0 min 0,0 UV-I -0,9 C 6,1 C 5,5 km/h (1 Bft)
15.02.2014 00:10 6,3 C 13,1 C 5,4 C 6,3 C 6,3 C 0,0 C 60 % 68 % 0 % 1008,4 hPa 0,0 l/m 2,3 km/h (1 Bft) NO 45 0 min 0,0 UV-I -0,9 C 6,3 C 1,9 km/h (1 Bft)
15.02.2014 00:15 6,3 C 13,1 C 5,5 C 6,4 C 6,4 C 0,1 C 59 % 67 % 0 % 1008,4 hPa 0,0 l/m 1,8 km/h (1 Bft) O-NO 67 0 min 0,0 UV-I -1,1 C 6,4 C 3,9 km/h (1 Bft)
15.02.2014 00:20 6,4 C 13,1 C 5,7 C 6,4 C 6,4 C 0,0 C 59 % 66 % 0 % 1008,4 hPa 0,0 l/m 1,0 km/h (0 Bft) O-NO 67 0 min 0,0 UV-I -1,0 C 6,4 C 2,7 km/h (1 Bft)
15.02.2014 00:25 6,4 C 13,1 C 5,6 C 6,4 C 6,4 C 0,0 C 59 % 66 % 0 % 1008,4 hPa 0,0 l/m 1,4 km/h (1 Bft) O-NO 67 0 min 0,0 UV-I -1,0 C 6,4 C 2,6 km/h (1 Bft)
15.02.2014 00:30 6,5 C 13,1 C 5,7 C 6,5 C 6,4 C 0,0 C 59 % 65 % 0 % 1008,4 hPa 0,0 l/m 2,1 km/h (1 Bft) O-NO 67 0 min 0,0 UV-I -0,9 C 6,4 C 5,6 km/h (1 Bft)
15.02.2014 00:35 6,4 C 13,1 C 5,7 C 6,5 C 6,5 C 0,1 C 59 % 65 % 0 % 1008,4 hPa 0,0 l/m 1,6 km/h (1 Bft) O-NO 67 0 min 0,0 UV-I -1,0 C 6,5 C 0,0 km/h (0 Bft)
15.02.2014 00:41 6,4 C 13,1 C 5,7 C 6,5 C 6,5 C 0,1 C 58 % 65 % 0 % 1008,4 hPa 0,0 l/m 1,6 km/h (1 Bft) N 0 0 min 0,0 UV-I -1,2 C 6,5 C 3,9 km/h (1 Bft)
15.02.2014 01:00 6,5 C 13,0 C 5,6 C 6,5 C 6,4 C 0,0 C 58 % 65 % 0 % 1007,6 hPa 0,0 l/m 0,2 km/h (0 Bft) O-NO 67 0 min 0,0 UV-I -1,2 C 6,4 C 0,0 km/h (0 Bft)
15.02.2014 01:05 6,4 C 13,0 C 5,6 C 6,4 C 6,4 C 0,0 C 58 % 66 % 0 % 1007,6 hPa 0,0 l/m 0,3 km/h (0 Bft) SO 135 0 min 0,0 UV-I -1,2 C 6,4 C 1,9 km/h (1 Bft)
15.02.2014 01:10 6,5 C 13,0 C 5,6 C 6,5 C 6,4 C 0,0 C 58 % 65 % 0 % 1007,8 hPa 0,0 l/m 0,5 km/h (0 Bft) N-NO 22 0 min 0,0 UV-I -1,2 C 6,4 C 0,0 km/h (0 Bft)
15.02.2014 01:15 6,5 C 13,0 C 5,6 C 6,5 C 6,4 C 0,0 C 57 % 65 % 0 % 1007,8 hPa 0,0 l/m 0,3 km/h (0 Bft) W-SW 247 0 min 0,0 UV-I -1,4 C 6,4 C 0,0 km/h (0 Bft)
15.02.2014 01:20 6,4 C 13,0 C 5,6 C 6,4 C 6,4 C 0,0 C 57 % 65 % 0 % 1007,8 hPa 0,0 l/m 0,3 km/h (0 Bft) N-NO 22 0 min 0,0 UV-I -1,5 C 6,4 C 1,8 km/h (1 Bft)
15.02.2014 01:25 6,5 C 13,0 C 5,6 C 6,5 C 6,4 C 0,0 C 57 % 65 % 0 % 1007,8 hPa 0,0 l/m 0,3 km/h (0 Bft) O-NO 67 0 min 0,0 UV-I -1,4 C 6,4 C 2,3 km/h (1 Bft)
15.02.2014 01:30 6,5 C 13,0 C 5,5 C 6,4 C 6,3 C 0,0 C 57 % 65 % 0 % 1007,6 hPa 0,0 l/m 0,6 km/h (0 Bft) N-NO 22 0 min 0,0 UV-I -1,4 C 6,3 C 3,4 km/h (1 Bft)
15.02.2014 01:35 6,5 C 13,0 C 5,5 C 6,4 C 6,2 C 0,0 C 57 % 65 % 0 % 1007,6 hPa 0,0 l/m 0,6 km/h (0 Bft) NO 45 0 min 0,0 UV-I -1,4 C 6,2 C 1,6 km/h (1 Bft)
15.02.2014 01:40 6,5 C 13,0 C 5,6 C 6,4 C 6,3 C 0,0 C 56 % 64 % 0 % 1007,6 hPa 0,0 l/m 0,8 km/h (0 Bft) O 90 0 min 0,0 UV-I -1,6 C 6,3 C 2,3 km/h (1 Bft)
15.02.2014 01:45 6,5 C 13,0 C 5,7 C 6,4 C 6,3 C 0,0 C 56 % 63 % 0 % 1007,6 hPa 0,0 l/m 1,0 km/h (0 Bft) O-NO 67 0 min 0,0 UV-I -1,6 C 6,3 C 2,3 km/h (1 Bft)
15.02.2014 01:50 6,5 C 13,0 C 5,6 C 6,4 C 6,2 C 0,0 C 56 % 63 % 0 % 1007,1 hPa 0,0 l/m 1,6 km/h (1 Bft) NO 45 0 min 0,0 UV-I -1,6 C 6,2 C 2,3 km/h (1 Bft)
15.02.2014 01:55 6,4 C 13,0 C 5,6 C 6,3 C 6,1 C 0,0 C 56 % 63 % 0 % 1007,1 hPa 0,0 l/m 1,8 km/h (1 Bft) NO 45 0 min 0,0 UV-I -1,7 C 6,1 C 2,7 km/h (1 Bft)
15.02.2014 02:00 6,4 C 13,0 C 5,7 C 6,3 C 6,1 C 0,0 C 56 % 63 % 0 % 1007,1 hPa 0,0 l/m 2,3 km/h (1 Bft) O 90 0 min 0,0 UV-I -1,7 C 6,1 C 6,0 km/h (2 Bft)
15.02.2014 02:05 6,4 C 13,0 C 5,6 C 6,3 C 6,0 C 0,0 C 56 % 63 % 0 % 1007,1 hPa 0,0 l/m 1,8 km/h (1 Bft) NO 45 0 min 0,0 UV-I -1,7 C 6,0 C 2,6 km/h (1 Bft)
15.02.2014 02:10 6,4 C 13,0 C 5,6 C 6,3 C 6,0 C 0,0 C 56 % 63 % 0 % 1006,4 hPa 0,0 l/m 1,8 km/h (1 Bft) O 90 0 min 0,0 UV-I -1,7 C 6,0 C 3,9 km/h (1 Bft)
15.02.2014 02:15 6,4 C 13,0 C 5,6 C 6,3 C 6,1 C 0,0 C 56 % 63 % 0 % 1006,4 hPa 0,0 l/m 1,9 km/h (1 Bft) NO 45 0 min 0,0 UV-I -1,7 C 6,1 C 3,7 km/h (1 Bft)
15.02.2014 02:20 6,4 C 13,0 C 5,7 C 6,3 C 6,1 C 0,0 C 55 % 62 % 0 % 1006,4 hPa 0,0 l/m 2,4 km/h (1 Bft) O-NO 67 0 min 0,0 UV-I -2,0 C 6,1 C 2,3 km/h (1 Bft)
15.02.2014 02:25 6,5 C 13,0 C 5,7 C 6,4 C 6,2 C 0,0 C 55 % 62 % 0 % 1006,4 hPa 0,0 l/m 2,7 km/h (1 Bft) O-NO 67 0 min 0,0 UV-I -1,9 C 6,2 C 3,4 km/h (1 Bft)
15.02.2014 02:30 6,5 C 13,0 C 5,7 C 6,4 C 6,2 C 0,0 C 55 % 62 % 0 % 1006,6 hPa 0,0 l/m 2,9 km/h (1 Bft) NO 45 0 min 0,0 UV-I -1,9 C 6,2 C 3,4 km/h (1 Bft)
15.02.2014 02:35 6,6 C 13,0 C 5,9 C 6,5 C 6,3 C 0,0 C 55 % 61 % 0 % 1006,6 hPa 0,0 l/m 2,7 km/h (1 Bft) N-NO 22 0 min 0,0 UV-I -1,8 C 6,3 C 2,6 km/h (1 Bft)
15.02.2014 02:40 6,6 C 13,0 C 5,9 C 6,5 C 6,4 C 0,0 C 55 % 61 % 0 % 1006,6 hPa 0,0 l/m 1,4 km/h (1 Bft) N-NO 22 0 min 0,0 UV-I -1,8 C 6,4 C 1,6 km/h (1 Bft)
15.02.2014 02:45 6,6 C 13,0 C 5,7 C 6,5 C 6,3 C 0,0 C 55 % 61 % 0 % 1006,6 hPa 0,0 l/m 1,0 km/h (0 Bft) NO 45 0 min 0,0 UV-I -1,8 C 6,3 C 1,8 km/h (1 Bft)
15.02.2014 02:50 6,7 C 13,0 C 5,5 C 6,5 C 6,2 C 0,0 C 55 % 62 % 0 % 1006,3 hPa 0,0 l/m 0,5 km/h (0 Bft) NO 45 0 min 0,0 UV-I -1,7 C 6,2 C 0,0 km/h (0 Bft)
15.02.2014 02:55 6,7 C 13,0 C 5,3 C 6,5 C 6,1 C 0,0 C 55 % 62 % 0 % 1006,3 hPa 0,0 l/m 0,6 km/h (0 Bft) O-NO 67 0 min 0,0 UV-I -1,7 C 6,1 C 0,0 km/h (0 Bft)
15.02.2014 03:00 6,5 C 13,0 C 5,1 C 6,3 C 5,9 C 0,0 C 55 % 63 % 0 % 1006,3 hPa 0,0 l/m 1,0 km/h (0 Bft) NO 45 0 min 0,0 UV-I -1,9 C 5,9 C 0,0 km/h (0 Bft)
15.02.2014 03:05 6,5 C 13,0 C 5,1 C 6,3 C 5,8 C 0,0 C 55 % 64 % 0 % 1006,3 hPa 0,0 l/m 1,0 km/h (0 Bft) N-NO 22 0 min 0,0 UV-I -1,9 C 5,8 C 2,9 km/h (1 Bft)
15.02.2014 03:10 6,5 C 13,0 C 5,1 C 6,3 C 5,8 C 0,0 C 56 % 64 % 0 % 1005,7 hPa 0,0 l/m 1,8 km/h (1 Bft) N-NO 22 0 min 0,0 UV-I -1,6 C 5,8 C 2,9 km/h (1 Bft)
15.02.2014 03:15 6,4 C 13,0 C 5,0 C 6,2 C 5,8 C 0,0 C 56 % 64 % 0 % 1005,7 hPa 0,0 l/m 2,1 km/h (1 Bft) N-NO 22 0 min 0,0 UV-I -1,7 C 5,8 C 2,1 km/h (1 Bft)
15.02.2014 03:20 6,3 C 13,0 C 4,8 C 6,1 C 5,7 C 0,0 C 56 % 65 % 0 % 1005,7 hPa 0,0 l/m 1,4 km/h (1 Bft) NO 45 0 min 0,0 UV-I -1,8 C 5,7 C 3,2 km/h (1 Bft)
15.02.2014 03:25 6,3 C 13,0 C 5,1 C 6,1 C 5,8 C 0,0 C 57 % 65 % 0 % 1005,7 hPa 0,0 l/m 1,1 km/h (1 Bft) O-NO 67 0 min 0,0 UV-I -1,6 C 5,8 C 2,3 km/h (1 Bft)
15.02.2014 03:30 6,4 C 13,0 C 5,3 C 6,2 C 5,9 C 0,0 C 57 % 65 % 0 % 1005,2 hPa 0,0 l/m 1,6 km/h (1 Bft) O-NO 67 0 min 0,0 UV-I -1,5 C 5,9 C 3,7 km/h (1 Bft)
15.02.2014 03:35 6,7 C 13,0 C 5,5 C 6,5 C 6,1 C 0,0 C 56 % 65 % 0 % 1005,2 hPa 0,0 l/m 2,1 km/h (1 Bft) NO 45 0 min 0,0 UV-I -1,4 C 6,1 C 3,7 km/h (1 Bft)
15.02.2014 03:40 7,1 C 13,0 C 5,9 C 6,9 C 6,5 C 0,0 C 55 % 63 % 0 % 1005,2 hPa 0,0 l/m 2,6 km/h (1 Bft) N-NW 337 0 min 0,0 UV-I -1,3 C 6,5 C 8,0 km/h (2 Bft)
15.02.2014 03:45 7,3 C 13,0 C 6,1 C 7,1 C 6,8 C 0,0 C 55 % 63 % 0 % 1005,2 hPa 0,0 l/m 2,6 km/h (1 Bft) SO 135 0 min 0,0 UV-I -1,1 C 6,8 C 3,5 km/h (1 Bft)
15.02.2014 03:50 7,5 C 13,0 C 6,2 C 7,4 C 7,1 C 0,0 C 55 % 63 % 0 % 1005,0 hPa 0,0 l/m 2,4 km/h (1 Bft) N-NO 22 0 min 0,0 UV-I -0,9 C 7,1 C 2,4 km/h (1 Bft)
15.02.2014 03:55 7,5 C 12,9 C 6,3 C 7,4 C 7,1 C 0,0 C 55 % 62 % 0 % 1005,0 hPa 0,0 l/m 1,8 km/h (1 Bft) W 270 0 min 0,0 UV-I -0,9 C 7,1 C 0,0 km/h (0 Bft)
15.02.2014 04:00 7,5 C 12,9 C 6,4 C 7,4 C 7,1 C 0,0 C 56 % 63 % 0 % 1005,0 hPa 0,0 l/m 1,6 km/h (1 Bft) NO 45 0 min 0,0 UV-I -0,7 C 7,1 C 1,8 km/h (1 Bft)
15.02.2014 04:05 7,6 C 12,9 C 6,4 C 7,4 C 7,1 C 0,0 C 56 % 63 % 0 % 1005,0 hPa 0,0 l/m 1,4 km/h (1 Bft) W 270 0 min 0,0 UV-I -0,6 C 7,1 C 1,6 km/h (1 Bft)
15.02.2014 04:10 7,9 C 13,0 C 6,7 C 7,7 C 7,4 C 0,0 C 55 % 63 % 0 % 1004,2 hPa 0,0 l/m 1,8 km/h (1 Bft) O-NO 67 0 min 0,0 UV-I -0,6 C 7,4 C 3,1 km/h (1 Bft)
15.02.2014 04:15 8,0 C 13,0 C 6,8 C 7,9 C 7,6 C 0,0 C 55 % 63 % 0 % 1004,2 hPa 0,0 l/m 2,3 km/h (1 Bft) N-NW 337 0 min 0,0 UV-I -0,5 C 7,6 C 2,7 km/h (1 Bft)
15.02.2014 04:20 8,1 C 13,0 C 6,8 C 7,9 C 7,6 C 0,0 C 55 % 63 % 0 % 1004,2 hPa 0,0 l/m 2,3 km/h (1 Bft) N-NO 22 0 min 0,0 UV-I -0,4 C 7,6 C 2,1 km/h (1 Bft)
15.02.2014 04:25 8,3 C 13,0 C 6,8 C 8,1 C 7,7 C 0,0 C 55 % 63 % 0 % 1004,2 hPa 0,0 l/m 1,8 km/h (1 Bft) S-SO 157 0 min 0,0 UV-I -0,2 C 7,7 C 5,1 km/h (1 Bft)
15.02.2014 04:30 8,3 C 13,0 C 6,9 C 8,1 C 7,7 C 0,0 C 55 % 63 % 0 % 1004,4 hPa 0,0 l/m 1,4 km/h (1 Bft) S-SO 157 0 min 0,0 UV-I -0,2 C 7,7 C 3,7 km/h (1 Bft)
15.02.2014 04:35 8,2 C 13,0 C 6,9 C 8,0 C 7,7 C 0,0 C 55 % 64 % 0 % 1004,4 hPa 0,0 l/m 1,4 km/h (1 Bft) N-NW 337 0 min 0,0 UV-I -0,3 C 7,7 C 1,6 km/h (1 Bft)
15.02.2014 04:40 8,2 C 13,0 C 6,7 C 8,0 C 7,7 C 0,0 C 55 % 64 % 0 % 1004,4 hPa 0,0 l/m 1,0 km/h (0 Bft) S 180 0 min 0,0 UV-I -0,3 C 7,7 C 2,3 km/h (1 Bft)
15.02.2014 04:45 8,3 C 13,0 C 6,7 C 8,1 C 7,6 C 0,0 C 56 % 64 % 0 % 1004,4 hPa 0,0 l/m 1,0 km/h (0 Bft) N-NO 22 0 min 0,0 UV-I 0,0 C 7,6 C 3,1 km/h (1 Bft)
15.02.2014 04:50 8,1 C 13,0 C 6,4 C 7,9 C 7,6 C 0,0 C 56 % 64 % 0 % 1004,3 hPa 0,0 l/m 1,1 km/h (1 Bft) N-NO 22 0 min 0,0 UV-I -0,1 C 7,6 C 3,1 km/h (1 Bft)
15.02.2014 04:55 8,0 C 13,0 C 6,7 C 7,8 C 7,5 C 0,0 C 55 % 64 % 0 % 1004,3 hPa 0,0 l/m 1,4 km/h (1 Bft) NO 45 0 min 0,0 UV-I -0,5 C 7,5 C 3,2 km/h (1 Bft)
15.02.2014 05:00 7,9 C 13,0 C 6,6 C 7,7 C 7,4 C 0,0 C 55 % 63 % 0 % 1004,3 hPa 0,0 l/m 1,6 km/h (1 Bft) W-NW 292 0 min 0,0 UV-I -0,6 C 7,4 C 0,0 km/h (0 Bft)
15.02.2014 05:05 7,9 C 13,0 C 6,5 C 7,6 C 7,1 C 0,0 C 55 % 63 % 0 % 1004,3 hPa 0,0 l/m 1,1 km/h (1 Bft) O-NO 67 0 min 0,0 UV-I -0,6 C 7,1 C 0,0 km/h (0 Bft)
15.02.2014 05:10 7,6 C 12,9 C 6,4 C 7,4 C 6,9 C 0,0 C 56 % 63 % 0 % 1004,6 hPa 0,0 l/m 1,3 km/h (1 Bft) NO 45 0 min 0,0 UV-I -0,6 C 6,9 C 5,1 km/h (1 Bft)
15.02.2014 05:15 7,5 C 12,9 C 6,2 C 7,3 C 6,8 C 0,0 C 56 % 63 % 0 % 1004,6 hPa 0,0 l/m 1,8 km/h (1 Bft) O-NO 67 0 min 0,0 UV-I -0,7 C 6,8 C 2,9 km/h (1 Bft)
15.02.2014 05:20 7,3 C 12,9 C 6,3 C 7,1 C 6,7 C 0,0 C 56 % 64 % 0 % 1004,6 hPa 0,0 l/m 2,3 km/h (1 Bft) N-NO 22 0 min 0,0 UV-I -0,9 C 6,7 C 3,1 km/h (1 Bft)
15.02.2014 05:25 7,3 C 12,9 C 6,3 C 7,1 C 6,6 C 0,0 C 56 % 64 % 0 % 1004,6 hPa 0,0 l/m 2,4 km/h (1 Bft) N-NO 22 0 min 0,0 UV-I -0,9 C 6,6 C 5,6 km/h (1 Bft)
15.02.2014 05:30 7,2 C 12,9 C 6,1 C 7,0 C 6,6 C 0,0 C 56 % 63 % 0 % 1004,6 hPa 0,0 l/m 2,1 km/h (1 Bft) N-NO 22 0 min 0,0 UV-I -1,0 C 6,6 C 2,9 km/h (1 Bft)
15.02.2014 05:35 7,2 C 12,9 C 6,0 C 7,0 C 6,6 C 0,0 C 56 % 64 % 0 % 1004,6 hPa 0,0 l/m 1,4 km/h (1 Bft) S-SO 157 0 min 0,0 UV-I -1,0 C 6,6 C 0,0 km/h (0 Bft)
15.02.2014 05:40 7,2 C 12,9 C 6,0 C 7,0 C 6,6 C 0,0 C 56 % 64 % 0 % 1004,6 hPa 0,0 l/m 1,3 km/h (1 Bft) O-NO 67 0 min 0,0 UV-I -1,0 C 6,6 C 1,8 km/h (1 Bft)
15.02.2014 05:45 7,2 C 12,9 C 6,0 C 7,0 C 6,6 C 0,0 C 56 % 64 % 0 % 1004,6 hPa 0,0 l/m 1,8 km/h (1 Bft) NO 45 0 min 0,0 UV-I -1,0 C 6,6 C 2,6 km/h (1 Bft)
15.02.2014 05:50 7,1 C 13,0 C 6,1 C 6,9 C 6,6 C 0,0 C 56 % 64 % 0 % 1004,4 hPa 0,0 l/m 2,3 km/h (1 Bft) NO 45 0 min 0,0 UV-I -1,1 C 6,6 C 3,7 km/h (1 Bft)
15.02.2014 05:55 7,1 C 13,0 C 6,3 C 6,9 C 6,6 C 0,0 C 57 % 64 % 0 % 1004,4 hPa 0,0 l/m 2,7 km/h (1 Bft) N-NO 22 0 min 0,0 UV-I -0,8 C 6,6 C 3,5 km/h (1 Bft)
15.02.2014 06:00 7,1 C 13,0 C 6,3 C 7,0 C 6,7 C 0,0 C 57 % 64 % 0 % 1004,4 hPa 0,0 l/m 3,5 km/h (1 Bft) O-NO 67 0 min 0,0 UV-I -0,8 C 6,7 C 6,3 km/h (2 Bft)
15.02.2014 06:05 7,1 C 13,0 C 6,3 C 7,0 C 6,7 C 0,0 C 57 % 64 % 0 % 1004,4 hPa 0,0 l/m 3,4 km/h (1 Bft) O-NO 67 0 min 0,0 UV-I -0,8 C 6,7 C 2,6 km/h (1 Bft)
15.02.2014 06:10 7,1 C 13,0 C 6,3 C 7,0 C 6,7 C 0,0 C 58 % 64 % 0 % 1004,4 hPa 0,0 l/m 3,2 km/h (1 Bft) N-NO 22 0 min 0,0 UV-I -0,6 C 6,7 C 3,9 km/h (1 Bft)
15.02.2014 06:15 7,1 C 13,0 C 6,2 C 7,0 C 6,7 C 0,0 C 58 % 64 % 0 % 1004,4 hPa 0,0 l/m 2,6 km/h (1 Bft) O-NO 67 0 min 0,0 UV-I -0,6 C 6,7 C 0,0 km/h (0 Bft)
15.02.2014 06:20 7,1 C 13,0 C 6,2 C 7,0 C 6,7 C 0,0 C 58 % 64 % 0 % 1004,4 hPa 0,0 l/m 1,6 km/h (1 Bft) N-NW 337 0 min 0,0 UV-I -0,6 C 6,7 C 2,4 km/h (1 Bft)
15.02.2014 06:25 7,1 C 13,0 C 6,3 C 7,0 C 6,7 C 0,0 C 58 % 64 % 0 % 1004,4 hPa 0,0 l/m 1,4 km/h (1 Bft) N-NO 22 0 min 0,0 UV-I -0,6 C 6,7 C 4,2 km/h (1 Bft)
15.02.2014 06:30 7,1 C 13,0 C 6,3 C 7,0 C 6,8 C 0,0 C 59 % 64 % 0 % 1004,4 hPa 0,0 l/m 1,9 km/h (1 Bft) O-NO 67 0 min 0,0 UV-I -0,4 C 6,8 C 1,6 km/h (1 Bft)
15.02.2014 06:35 7,3 C 13,0 C 6,5 C 7,1 C 6,8 C 0,0 C 59 % 65 % 0 % 1004,4 hPa 0,0 l/m 2,4 km/h (1 Bft) W-NW 292 0 min 0,0 UV-I -0,2 C 6,8 C 5,3 km/h (1 Bft)
15.02.2014 06:37 7,4 C 13,0 C 6,6 C 7,3 C 7,0 C 0,0 C 59 % 65 % 0 % 1004,4 hPa 0,0 l/m 2,4 km/h (1 Bft) N-NO 22 0 min 0,0 UV-I -0,1 C 7,0 C 4,0 km/h (1 Bft)
15.02.2014 06:42 7,5 C 13,0 C 6,6 C 7,4 C 7,1 C 0,0 C 58 % 65 % 0 % 1004,4 hPa 0,0 l/m 2,6 km/h (1 Bft) SW 225 0 min 0,0 UV-I -0,2 C 7,1 C 2,4 km/h (1 Bft)
15.02.2014 06:47 7,6 C 13,0 C 6,7 C 7,5 C 7,3 C 0,0 C 58 % 65 % 0 % 1004,7 hPa 0,0 l/m 2,7 km/h (1 Bft) SO 135 0 min 0,0 UV-I -0,1 C 7,3 C 3,7 km/h (1 Bft)
15.02.2014 06:52 7,7 C 13,0 C 6,7 C 7,6 C 7,3 C 0,0 C 58 % 65 % 0 % 1004,7 hPa 0,0 l/m 2,6 km/h (1 Bft) O 90 0 min 0,0 UV-I -0,0 C 7,3 C 2,1 km/h (1 Bft)
15.02.2014 06:57 7,7 C 13,0 C 6,7 C 7,6 C 7,3 C 0,0 C 58 % 65 % 0 % 1004,7 hPa 0,0 l/m 2,6 km/h (1 Bft) O 90 0 min 0,0 UV-I -0,0 C 7,3 C 2,1 km/h (1 Bft)
15.02.2014 07:05 7,6 C 13,0 C 6,5 C 7,4 C 7,1 C 0,0 C 58 % 65 % 0 % 1004,7 hPa 0,0 l/m 1,1 km/h (1 Bft) O-NO 67 0 min 0,0 UV-I -0,1 C 7,1 C 0,0 km/h (0 Bft)
15.02.2014 07:10 7,4 C 13,0 C 6,3 C 7,2 C 6,8 C 0,0 C 59 % 65 % 0 % 1005,0 hPa 0,0 l/m 0,5 km/h (0 Bft) O-NO 67 0 min 0,0 UV-I -0,1 C 6,8 C 0,0 km/h (0 Bft)
15.02.2014 07:15 7,3 C 13,0 C 6,0 C 7,1 C 6,6 C 0,0 C 59 % 66 % 0 % 1005,0 hPa 0,0 l/m 0,2 km/h (0 Bft) O-NO 67 0 min 0,0 UV-I -0,2 C 6,6 C 0,0 km/h (0 Bft)
15.02.2014 07:20 7,2 C 13,0 C 5,8 C 6,9 C 6,4 C 0,0 C 60 % 67 % 0 % 1005,0 hPa 0,0 l/m 0,0 km/h (0 Bft) W-NW 292 0 min 0,0 UV-I -0,0 C 6,4 C 0,0 km/h (0 Bft)
15.02.2014 07:25 7,2 C 13,0 C 5,9 C 6,9 C 6,4 C 0,0 C 60 % 67 % 0 % 1005,0 hPa 0,0 l/m 0,0 km/h (0 Bft) W 270 0 min 0,0 UV-I -0,0 C 6,4 C 0,0 km/h (0 Bft)
15.02.2014 07:30 7,1 C 13,0 C 5,9 C 6,9 C 6,5 C 0,0 C 61 % 68 % 0 % 1004,6 hPa 0,0 l/m 0,2 km/h (0 Bft) O 90 0 min 0,0 UV-I 0,1 C 6,5 C 0,0 km/h (0 Bft)
15.02.2014 07:35 7,1 C 13,0 C 6,0 C 6,9 C 6,6 C 0,0 C 61 % 69 % 0 % 1004,6 hPa 0,0 l/m 0,6 km/h (0 Bft) NO 45 0 min 0,0 UV-I 0,1 C 6,6 C 2,1 km/h (1 Bft)
15.02.2014 07:40 7,4 C 13,0 C 6,3 C 7,2 C 6,9 C 0,0 C 61 % 68 % 0 % 1004,6 hPa 0,0 l/m 1,1 km/h (1 Bft) NO 45 0 min 0,0 UV-I 0,4 C 6,9 C 0,0 km/h (0 Bft)
15.02.2014 07:45 7,5 C 13,0 C 6,4 C 7,4 C 7,1 C 0,0 C 61 % 68 % 0 % 1004,6 hPa 0,0 l/m 0,8 km/h (0 Bft) NO 45 0 min 0,0 UV-I 0,5 C 7,1 C 0,0 km/h (0 Bft)
15.02.2014 07:50 7,6 C 13,0 C 6,4 C 7,5 C 7,2 C 0,0 C 61 % 68 % 0 % 1005,1 hPa 0,0 l/m 0,6 km/h (0 Bft) O-NO 67 0 min 0,0 UV-I 0,6 C 7,2 C 2,1 km/h (1 Bft)
15.02.2014 07:55 7,7 C 13,0 C 6,7 C 7,6 C 7,3 C 0,0 C 61 % 68 % 0 % 1005,1 hPa 0,0 l/m 0,8 km/h (0 Bft) NO 45 0 min 0,0 UV-I 0,7 C 7,3 C 2,3 km/h (1 Bft)
15.02.2014 08:00 7,6 C 13,0 C 6,6 C 7,5 C 7,4 C 0,0 C 61 % 67 % 0 % 1005,1 hPa 0,0 l/m 0,8 km/h (0 Bft) N-NO 22 0 min 0,0 UV-I 0,6 C 7,4 C 1,9 km/h (1 Bft)
15.02.2014 08:05 7,7 C 13,0 C 6,7 C 7,7 C 7,6 C 0,0 C 61 % 68 % 0 % 1005,1 hPa 0,0 l/m 0,5 km/h (0 Bft) NO 45 0 min 0,0 UV-I 0,7 C 7,6 C 0,0 km/h (0 Bft)
15.02.2014 08:10 7,7 C 13,0 C 6,8 C 7,8 C 7,8 C 0,1 C 61 % 68 % 3 % 1005,1 hPa 0,0 l/m 0,2 km/h (0 Bft) N-NW 337 0 min 0,0 UV-I 0,7 C 7,8 C 0,0 km/h (0 Bft)
15.02.2014 08:15 7,7 C 13,0 C 6,7 C 7,9 C 7,9 C 0,2 C 61 % 68 % 5 % 1005,1 hPa 0,0 l/m 0,0 km/h (0 Bft) NO 45 0 min 0,0 UV-I 0,7 C 7,9 C 0,0 km/h (0 Bft)
15.02.2014 08:20 7,7 C 13,0 C 6,8 C 7,9 C 7,9 C 0,2 C 61 % 69 % 5 % 1005,1 hPa 0,0 l/m 0,0 km/h (0 Bft) N-NO 22 0 min 0,0 UV-I 0,7 C 7,9 C 0,0 km/h (0 Bft)
15.02.2014 08:25 7,8 C 13,0 C 7,1 C 8,1 C 8,1 C 0,3 C 61 % 68 % 8 % 1005,1 hPa 0,0 l/m 0,6 km/h (0 Bft) O-NO 67 0 min 0,0 UV-I 0,8 C 8,1 C 3,1 km/h (1 Bft)
15.02.2014 08:30 8,4 C 13,0 C 7,6 C 8,6 C 8,6 C 0,2 C 61 % 68 % 5 % 1004,9 hPa 0,0 l/m 1,9 km/h (1 Bft) N-NO 22 0 min 0,0 UV-I 1,3 C 8,6 C 2,3 km/h (1 Bft)
15.02.2014 08:35 8,7 C 13,1 C 8,0 C 9,0 C 9,0 C 0,3 C 61 % 66 % 8 % 1004,9 hPa 0,0 l/m 2,3 km/h (1 Bft) NO 45 0 min 0,0 UV-I 1,6 C 9,0 C 3,7 km/h (1 Bft)
15.02.2014 08:40 9,1 C 13,1 C 8,3 C 9,4 C 9,4 C 0,3 C 59 % 65 % 8 % 1004,9 hPa 0,0 l/m 2,3 km/h (1 Bft) O-SO 112 0 min 0,0 UV-I 1,5 C 9,4 C 4,0 km/h (1 Bft)
15.02.2014 08:45 9,2 C 13,1 C 8,5 C 9,6 C 9,6 C 0,4 C 59 % 64 % 11 % 1004,9 hPa 0,0 l/m 2,7 km/h (1 Bft) O-NO 67 0 min 0,0 UV-I 1,6 C 9,6 C 5,1 km/h (1 Bft)
15.02.2014 08:50 9,3 C 13,1 C 8,7 C 9,8 C 9,8 C 0,5 C 59 % 63 % 13 % 1004,7 hPa 0,0 l/m 4,0 km/h (1 Bft) O-NO 67 0 min 0,0 UV-I 1,7 C 9,8 C 3,7 km/h (1 Bft)
15.02.2014 08:55 9,5 C 13,1 C 8,9 C 9,6 C 9,6 C 0,1 C 58 % 63 % 3 % 1004,7 hPa 0,0 l/m 4,7 km/h (1 Bft) O-NO 67 0 min 0,0 UV-I 1,7 C 9,4 C 6,4 km/h (2 Bft)
15.02.2014 09:00 9,5 C 13,1 C 8,9 C 9,9 C 9,9 C 0,4 C 59 % 63 % 11 % 1004,7 hPa 0,0 l/m 4,0 km/h (1 Bft) O-NO 67 0 min 0,0 UV-I 1,9 C 9,9 C 1,9 km/h (1 Bft)
15.02.2014 09:05 9,5 C 13,1 C 8,8 C 9,9 C 9,9 C 0,4 C 58 % 64 % 11 % 1004,7 hPa 0,0 l/m 2,6 km/h (1 Bft) N-NO 22 0 min 0,0 UV-I 1,7 C 9,9 C 0,0 km/h (0 Bft)
15.02.2014 09:10 9,6 C 13,1 C 8,7 C 9,9 C 9,9 C 0,3 C 59 % 64 % 8 % 1004,8 hPa 0,0 l/m 0,6 km/h (0 Bft) NO 45 0 min 0,0 UV-I 2,0 C 9,9 C 2,1 km/h (1 Bft)
15.02.2014 09:15 9,6 C 13,1 C 8,8 C 9,9 C 9,9 C 0,3 C 59 % 64 % 8 % 1004,8 hPa 0,0 l/m 0,8 km/h (0 Bft) NO 45 0 min 0,0 UV-I 2,0 C 9,9 C 1,6 km/h (1 Bft)
15.02.2014 09:20 9,6 C 13,1 C 8,7 C 10,0 C 10,0 C 0,4 C 59 % 65 % 11 % 1004,8 hPa 0,0 l/m 0,6 km/h (0 Bft) S 180 0 min 0,0 UV-I 2,0 C 10,0 C 1,9 km/h (1 Bft)
15.02.2014 09:25 9,6 C 13,1 C 8,5 C 9,9 C 9,9 C 0,3 C 59 % 65 % 8 % 1004,8 hPa 0,0 l/m 0,3 km/h (0 Bft) NW 315 0 min 0,0 UV-I 2,0 C 9,9 C 0,0 km/h (0 Bft)
15.02.2014 09:30 9,6 C 13,1 C 8,3 C 9,9 C 9,9 C 0,3 C 59 % 66 % 8 % 1005,0 hPa 0,0 l/m 0,3 km/h (0 Bft) O-NO 67 0 min 0,0 UV-I 2,0 C 9,9 C 0,0 km/h (0 Bft)
15.02.2014 09:35 9,7 C 13,1 C 8,3 C 9,9 C 9,9 C 0,2 C 59 % 67 % 5 % 1005,0 hPa 0,0 l/m 0,0 km/h (0 Bft) O-SO 112 0 min 0,0 UV-I 2,1 C 9,9 C 0,0 km/h (0 Bft)
15.02.2014 09:40 9,6 C 13,1 C 8,4 C 10,1 C 10,1 C 0,5 C 60 % 67 % 13 % 1005,0 hPa 0,0 l/m 0,0 km/h (0 Bft) SO 135 0 min 0,0 UV-I 2,2 C 10,1 C 2,1 km/h (1 Bft)
15.02.2014 09:45 9,9 C 13,1 C 8,5 C 10,3 C 10,3 C 0,4 C 60 % 68 % 11 % 1005,0 hPa 0,0 l/m 0,6 km/h (0 Bft) S-SW 202 0 min 0,0 UV-I 2,5 C 10,3 C 2,3 km/h (1 Bft)
15.02.2014 09:50 10,1 C 13,1 C 8,7 C 10,6 C 10,6 C 0,5 C 60 % 67 % 13 % 1005,2 hPa 0,0 l/m 1,3 km/h (1 Bft) SW 225 0 min 0,0 UV-I 2,7 C 10,6 C 8,2 km/h (2 Bft)
15.02.2014 09:55 10,3 C 13,2 C 8,9 C 10,7 C 10,7 C 0,4 C 60 % 68 % 11 % 1005,2 hPa 0,0 l/m 2,1 km/h (1 Bft) O-SO 112 0 min 0,0 UV-I 2,9 C 10,7 C 0,0 km/h (0 Bft)
15.02.2014 10:00 10,4 C 13,2 C 9,0 C 10,9 C 10,9 C 0,5 C 59 % 68 % 13 % 1005,2 hPa 0,0 l/m 1,3 km/h (1 Bft) O-NO 67 0 min 0,0 UV-I 2,7 C 10,9 C 13,5 km/h (3 Bft)
15.02.2014 10:05 10,7 C 13,2 C 9,2 C 11,1 C 11,1 C 0,4 C 59 % 68 % 11 % 1005,2 hPa 0,0 l/m 1,4 km/h (1 Bft) O-SO 112 0 min 0,0 UV-I 3,0 C 11,1 C 8,2 km/h (2 Bft)
15.02.2014 10:10 11,1 C 13,2 C 9,5 C 11,3 C 11,3 C 0,2 C 58 % 67 % 5 % 1005,6 hPa 0,0 l/m 2,6 km/h (1 Bft) SO 135 0 min 0,0 UV-I 3,2 C 11,3 C 5,6 km/h (1 Bft)
15.02.2014 10:15 11,2 C 13,2 C 9,6 C 11,5 C 11,5 C 0,3 C 58 % 67 % 8 % 1005,6 hPa 0,0 l/m 3,4 km/h (1 Bft) S 180 0 min 0,0 UV-I 3,2 C 11,5 C 5,8 km/h (2 Bft)
15.02.2014 10:20 11,5 C 13,2 C 9,9 C 11,7 C 11,7 C 0,2 C 57 % 66 % 5 % 1005,6 hPa 0,0 l/m 4,8 km/h (1 Bft) O-SO 112 0 min 0,0 UV-I 3,3 C 11,7 C 6,4 km/h (2 Bft)
15.02.2014 10:25 11,6 C 13,2 C 10,0 C 11,9 C 11,9 C 0,3 C 57 % 65 % 8 % 1005,6 hPa 0,0 l/m 4,7 km/h (1 Bft) S-SO 157 0 min 0,0 UV-I 3,4 C 11,9 C 6,8 km/h (2 Bft)
15.02.2014 10:30 11,7 C 13,1 C 10,1 C 12,0 C 12,0 C 0,3 C 56 % 65 % 8 % 1005,8 hPa 0,0 l/m 4,5 km/h (1 Bft) S-SO 157 0 min 0,0 UV-I 3,2 C 12,0 C 5,0 km/h (1 Bft)
15.02.2014 10:35 11,8 C 13,1 C 10,3 C 12,1 C 12,1 C 0,3 C 56 % 65 % 8 % 1005,8 hPa 0,0 l/m 4,5 km/h (1 Bft) S 180 0 min 0,0 UV-I 3,3 C 12,1 C 4,0 km/h (1 Bft)
15.02.2014 10:40 11,9 C 13,1 C 10,3 C 12,1 C 12,1 C 0,2 C 56 % 64 % 5 % 1005,8 hPa 0,0 l/m 4,2 km/h (1 Bft) SO 135 0 min 0,0 UV-I 3,4 C 12,1 C 8,0 km/h (2 Bft)
15.02.2014 10:45 11,9 C 13,1 C 10,4 C 12,1 C 12,1 C 0,2 C 55 % 64 % 5 % 1005,8 hPa 0,0 l/m 4,7 km/h (1 Bft) S 180 0 min 0,0 UV-I 3,2 C 12,1 C 10,3 km/h (2 Bft)
15.02.2014 10:50 12,1 C 13,2 C 10,6 C 12,2 C 12,2 C 0,1 C 55 % 64 % 3 % 1006,1 hPa 0,0 l/m 3,7 km/h (1 Bft) S-SW 202 0 min 0,0 UV-I 3,3 C 12,2 C 4,0 km/h (1 Bft)
15.02.2014 10:55 12,1 C 13,2 C 10,7 C 12,3 C 12,3 C 0,2 C 55 % 63 % 5 % 1006,1 hPa 0,0 l/m 2,7 km/h (1 Bft) SO 135 0 min 0,0 UV-I 3,3 C 12,3 C 5,8 km/h (2 Bft)
15.02.2014 11:00 12,0 C 13,2 C 10,6 C 12,3 C 12,3 C 0,3 C 55 % 63 % 8 % 1006,1 hPa 0,0 l/m 2,4 km/h (1 Bft) SW 225 0 min 0,0 UV-I 3,2 C 12,3 C 2,6 km/h (1 Bft)
15.02.2014 11:05 12,0 C 13,2 C 10,7 C 12,3 C 12,3 C 0,3 C 55 % 63 % 8 % 1006,1 hPa 0,0 l/m 2,7 km/h (1 Bft) S 180 0 min 0,0 UV-I 3,2 C 12,3 C 3,1 km/h (1 Bft)
15.02.2014 11:10 12,1 C 13,2 C 10,7 C 12,3 C 12,3 C 0,2 C 55 % 63 % 5 % 1005,6 hPa 0,0 l/m 4,0 km/h (1 Bft) SO 135 0 min 0,0 UV-I 3,3 C 12,3 C 7,1 km/h (2 Bft)
15.02.2014 11:15 12,2 C 13,2 C 10,7 C 12,3 C 12,3 C 0,1 C 55 % 63 % 3 % 1005,6 hPa 0,0 l/m 4,2 km/h (1 Bft) S 180 0 min 0,0 UV-I 3,4 C 12,3 C 5,0 km/h (1 Bft)
15.02.2014 11:20 12,1 C 13,2 C 10,7 C 12,2 C 12,2 C 0,1 C 56 % 64 % 3 % 1005,6 hPa 0,0 l/m 3,1 km/h (1 Bft) O 90 0 min 0,0 UV-I 3,6 C 12,2 C 1,8 km/h (1 Bft)
15.02.2014 11:25 12,1 C 13,2 C 10,7 C 12,1 C 12,1 C 0,0 C 56 % 64 % 0 % 1005,6 hPa 0,0 l/m 2,3 km/h (1 Bft) S 180 0 min 0,0 UV-I 3,6 C 12,1 C 3,1 km/h (1 Bft)
15.02.2014 11:30 12,0 C 13,2 C 10,5 C 12,0 C 12,0 C 0,0 C 57 % 65 % 0 % 1005,8 hPa 0,0 l/m 1,4 km/h (1 Bft) S-SO 157 0 min 0,0 UV-I 3,8 C 12,0 C 3,7 km/h (1 Bft)
15.02.2014 11:35 12,0 C 13,2 C 10,7 C 12,1 C 12,1 C 0,1 C 57 % 65 % 3 % 1005,8 hPa 0,0 l/m 2,1 km/h (1 Bft) SO 135 0 min 0,0 UV-I 3,8 C 12,1 C 4,7 km/h (1 Bft)
15.02.2014 11:40 12,1 C 13,3 C 10,8 C 12,2 C 12,2 C 0,1 C 56 % 65 % 3 % 1005,8 hPa 0,0 l/m 4,0 km/h (1 Bft) S-SO 157 0 min 0,0 UV-I 3,6 C 12,2 C 6,9 km/h (2 Bft)
15.02.2014 11:45 12,1 C 13,3 C 10,9 C 12,3 C 12,3 C 0,2 C 57 % 65 % 5 % 1005,8 hPa 0,0 l/m 4,0 km/h (1 Bft) S 180 0 min 0,0 UV-I 3,8 C 12,3 C 3,5 km/h (1 Bft)
15.02.2014 11:50 12,3 C 13,3 C 10,9 C 12,4 C 12,4 C 0,1 C 57 % 65 % 3 % 1006,4 hPa 0,0 l/m 4,0 km/h (1 Bft) SO 135 0 min 0,0 UV-I 4,0 C 12,4 C 7,4 km/h (2 Bft)
15.02.2014 11:55 12,3 C 13,3 C 10,9 C 12,4 C 12,4 C 0,1 C 57 % 65 % 3 % 1006,4 hPa 0,0 l/m 4,7 km/h (1 Bft) SO 135 0 min 0,0 UV-I 4,0 C 12,4 C 8,0 km/h (2 Bft)
15.02.2014 12:00 12,2 C 13,3 C 11,1 C 12,6 C 12,6 C 0,4 C 58 % 65 % 11 % 1006,4 hPa 0,0 l/m 4,3 km/h (1 Bft) W-SW 247 0 min 0,0 UV-I 4,2 C 12,6 C 0,0 km/h (0 Bft)
15.02.2014 12:05 12,3 C 13,3 C 11,2 C 12,7 C 12,7 C 0,4 C 58 % 65 % 11 % 1006,4 hPa 0,0 l/m 3,9 km/h (1 Bft) O-SO 112 0 min 0,0 UV-I 4,3 C 12,7 C 2,9 km/h (1 Bft)
15.02.2014 12:10 12,3 C 13,3 C 11,2 C 12,8 C 12,8 C 0,5 C 58 % 65 % 13 % 1005,8 hPa 0,0 l/m 3,9 km/h (1 Bft) S-SO 157 0 min 0,0 UV-I 4,3 C 12,8 C 8,9 km/h (2 Bft)
15.02.2014 12:15 12,4 C 13,3 C 11,4 C 12,9 C 12,9 C 0,5 C 58 % 65 % 13 % 1005,8 hPa 0,0 l/m 5,0 km/h (1 Bft) O-SO 112 0 min 0,0 UV-I 4,4 C 12,9 C 6,6 km/h (2 Bft)
15.02.2014 12:20 12,4 C 13,4 C 11,6 C 13,0 C 13,0 C 0,6 C 58 % 64 % 16 % 1005,8 hPa 0,0 l/m 6,1 km/h (2 Bft) S 180 0 min 0,0 UV-I 4,4 C 13,0 C 10,5 km/h (2 Bft)
15.02.2014 12:25 12,5 C 13,4 C 11,6 C 13,0 C 13,0 C 0,5 C 58 % 64 % 13 % 1005,8 hPa 0,0 l/m 6,1 km/h (2 Bft) S-SO 157 0 min 0,0 UV-I 4,5 C 13,0 C 9,0 km/h (2 Bft)
15.02.2014 12:30 12,6 C 13,4 C 11,6 C 13,2 C 13,2 C 0,6 C 58 % 64 % 16 % 1005,5 hPa 0,0 l/m 5,6 km/h (1 Bft) SO 135 0 min 0,0 UV-I 4,6 C 13,2 C 7,6 km/h (2 Bft)
15.02.2014 12:35 12,7 C 13,4 C 11,6 C 13,1 C 13,1 C 0,4 C 58 % 64 % 11 % 1005,5 hPa 0,0 l/m 6,0 km/h (2 Bft) S 180 0 min 0,0 UV-I 4,7 C 13,1 C 4,8 km/h (1 Bft)
15.02.2014 12:41 12,6 C 13,4 C 11,6 C 13,0 C 13,0 C 0,4 C 58 % 64 % 11 % 1005,5 hPa 0,0 l/m 5,5 km/h (1 Bft) N 0 0 min 0,0 UV-I 4,6 C 13,0 C 5,5 km/h (1 Bft)
15.02.2014 13:00 12,7 C 13,5 C 11,5 C 12,7 C 12,7 C 0,0 C 59 % 65 % 0 % 1005,8 hPa 0,0 l/m 4,8 km/h (1 Bft) S-SW 202 0 min 0,0 UV-I 4,9 C 12,7 C 6,1 km/h (2 Bft)
15.02.2014 13:01 12,7 C 13,5 C 11,5 C 12,7 C 12,7 C 0,0 C 59 % 65 % 0 % 1005,8 hPa 0,0 l/m 4,8 km/h (1 Bft) S-SW 202 0 min 0,0 UV-I 4,9 C 12,7 C 6,1 km/h (2 Bft)
15.02.2014 13:05 12,6 C 13,5 C 11,4 C 12,7 C 12,7 C 0,1 C 59 % 65 % 3 % 1005,8 hPa 0,0 l/m 4,3 km/h (1 Bft) S-SO 157 0 min 0,0 UV-I 4,8 C 12,7 C 7,9 km/h (2 Bft)
15.02.2014 13:10 12,5 C 13,5 C 11,4 C 12,4 C 12,3 C 0,0 C 60 % 66 % 0 % 1005,8 hPa 0,0 l/m 2,6 km/h (1 Bft) O 90 0 min 0,0 UV-I 5,0 C 12,3 C 0,0 km/h (0 Bft)
15.02.2014 13:15 12,4 C 13,5 C 11,3 C 12,3 C 12,1 C 0,0 C 60 % 67 % 0 % 1005,8 hPa 0,0 l/m 2,4 km/h (1 Bft) N-NO 22 0 min 0,0 UV-I 4,9 C 12,1 C 0,0 km/h (0 Bft)
15.02.2014 13:20 12,3 C 13,6 C 11,3 C 12,2 C 11,9 C 0,0 C 62 % 68 % 0 % 1005,8 hPa 0,0 l/m 2,4 km/h (1 Bft) SO 135 0 min 0,0 UV-I 5,2 C 11,9 C 4,5 km/h (1 Bft)
15.02.2014 13:25 12,3 C 13,7 C 11,1 C 12,0 C 11,3 C 0,0 C 63 % 70 % 0 % 1005,8 hPa 0,0 l/m 1,9 km/h (1 Bft) SO 135 0 min 0,0 UV-I 5,5 C 11,3 C 4,0 km/h (1 Bft)
15.02.2014 13:30 11,9 C 13,9 C 10,7 C 11,4 C 10,4 C 0,0 C 65 % 73 % 0 % 1006,1 hPa 0,0 l/m 2,9 km/h (1 Bft) O-NO 67 0 min 0,0 UV-I 5,5 C 10,4 C 2,1 km/h (1 Bft)
15.02.2014 13:35 11,7 C 13,9 C 10,4 C 11,1 C 10,0 C 0,0 C 67 % 75 % 0 % 1006,1 hPa 0,0 l/m 4,0 km/h (1 Bft) SO 135 0 min 0,0 UV-I 5,8 C 10,0 C 5,5 km/h (1 Bft)
15.02.2014 13:40 11,5 C 14,1 C 10,1 C 10,8 C 9,3 C 0,0 C 69 % 77 % 0 % 1006,1 hPa 0,0 l/m 5,1 km/h (1 Bft) SO 135 0 min 0,0 UV-I 6,0 C 8,9 C 5,1 km/h (1 Bft)
15.02.2014 13:45 11,3 C 14,1 C 10,0 C 10,6 C 9,1 C 0,0 C 71 % 79 % 0 % 1006,1 hPa 0,0 l/m 5,0 km/h (1 Bft) SO 135 0 min 0,0 UV-I 6,2 C 8,7 C 8,0 km/h (2 Bft)
15.02.2014 13:50 11,1 C 14,2 C 9,7 C 10,5 C 9,2 C 0,0 C 72 % 83 % 0 % 1005,9 hPa 0,0 l/m 3,5 km/h (1 Bft) S 180 0 min 0,0 UV-I 6,2 C 9,2 C 4,5 km/h (1 Bft)
15.02.2014 13:55 10,9 C 14,2 C 9,5 C 10,3 C 9,1 C 0,0 C 73 % 84 % 0 % 1005,9 hPa 0,0 l/m 3,4 km/h (1 Bft) W-SW 247 0 min 0,0 UV-I 6,3 C 9,1 C 5,0 km/h (1 Bft)
15.02.2014 14:00 10,7 C 14,2 C 9,2 C 10,1 C 8,9 C 0,0 C 75 % 85 % 0 % 1005,9 hPa 0,0 l/m 3,9 km/h (1 Bft) SO 135 0 min 0,0 UV-I 6,5 C 8,9 C 3,1 km/h (1 Bft)
15.02.2014 14:05 10,4 C 14,2 C 9,2 C 9,8 C 8,7 C 0,0 C 75 % 86 % 0 % 1005,9 hPa 0,7 l/m 4,5 km/h (1 Bft) S-SO 157 0 min 0,0 UV-I 6,2 C 8,7 C 5,5 km/h (1 Bft)
15.02.2014 14:10 10,4 C 14,2 C 9,1 C 9,7 C 8,4 C 0,0 C 76 % 86 % 0 % 1005,9 hPa 0,0 l/m 5,1 km/h (1 Bft) S 180 0 min 0,0 UV-I 6,4 C 7,9 C 7,7 km/h (2 Bft)
15.02.2014 14:15 10,4 C 14,2 C 9,2 C 9,7 C 8,4 C 0,0 C 76 % 86 % 0 % 1005,9 hPa 0,0 l/m 5,3 km/h (1 Bft) SO 135 0 min 0,0 UV-I 6,4 C 7,8 C 6,1 km/h (2 Bft)
15.02.2014 14:20 10,3 C 14,2 C 9,2 C 9,7 C 8,5 C 0,0 C 77 % 86 % 0 % 1005,9 hPa 0,0 l/m 5,0 km/h (1 Bft) S-SO 157 0 min 0,0 UV-I 6,4 C 8,1 C 4,5 km/h (1 Bft)
15.02.2014 14:25 10,3 C 14,3 C 9,1 C 9,7 C 8,5 C 0,0 C 77 % 86 % 0 % 1005,9 hPa 0,0 l/m 4,5 km/h (1 Bft) O-SO 112 0 min 0,0 UV-I 6,4 C 8,5 C 4,3 km/h (1 Bft)
15.02.2014 14:30 10,0 C 14,2 C 8,9 C 9,5 C 8,6 C 0,0 C 77 % 86 % 0 % 1006,0 hPa 0,0 l/m 3,9 km/h (1 Bft) NW 315 0 min 0,0 UV-I 6,2 C 8,6 C 5,0 km/h (1 Bft)
15.02.2014 14:35 10,0 C 14,3 C 8,9 C 9,5 C 8,4 C 0,0 C 78 % 86 % 0 % 1006,0 hPa 0,0 l/m 4,0 km/h (1 Bft) O-SO 112 0 min 0,0 UV-I 6,3 C 8,4 C 4,2 km/h (1 Bft)
15.02.2014 14:40 9,8 C 14,2 C 8,8 C 9,3 C 8,3 C 0,0 C 78 % 87 % 0 % 1006,0 hPa 0,0 l/m 3,9 km/h (1 Bft) O-SO 112 0 min 0,0 UV-I 6,1 C 8,3 C 8,4 km/h (2 Bft)
15.02.2014 14:45 9,8 C 14,3 C 8,9 C 9,4 C 8,5 C 0,0 C 78 % 87 % 0 % 1006,0 hPa 0,0 l/m 3,7 km/h (1 Bft) S 180 0 min 0,0 UV-I 6,1 C 8,5 C 6,6 km/h (2 Bft)
15.02.2014 14:50 9,9 C 14,3 C 8,9 C 9,4 C 8,3 C 0,0 C 79 % 87 % 0 % 1006,1 hPa 0,0 l/m 4,7 km/h (1 Bft) S-SO 157 0 min 0,0 UV-I 6,4 C 7,9 C 7,7 km/h (2 Bft)
15.02.2014 14:55 9,9 C 14,2 C 9,0 C 9,3 C 8,1 C 0,0 C 79 % 87 % 0 % 1006,1 hPa 0,0 l/m 5,6 km/h (1 Bft) S-SO 157 0 min 0,0 UV-I 6,4 C 7,4 C 13,8 km/h (3 Bft)
15.02.2014 15:00 9,9 C 14,2 C 9,1 C 9,2 C 7,9 C 0,0 C 79 % 87 % 0 % 1006,1 hPa 0,0 l/m 6,1 km/h (2 Bft) S-SO 157 0 min 0,0 UV-I 6,4 C 7,0 C 6,4 km/h (2 Bft)
15.02.2014 15:05 9,9 C 14,3 C 9,0 C 9,4 C 8,4 C 0,0 C 79 % 87 % 0 % 1006,1 hPa 0,0 l/m 5,3 km/h (1 Bft) SO 135 0 min 0,0 UV-I 6,4 C 7,8 C 3,5 km/h (1 Bft)
15.02.2014 15:10 9,9 C 14,2 C 9,0 C 9,6 C 8,9 C 0,0 C 79 % 87 % 0 % 1006,3 hPa 0,0 l/m 3,7 km/h (1 Bft) SW 225 0 min 0,0 UV-I 6,4 C 8,9 C 4,5 km/h (1 Bft)
15.02.2014 15:15 9,8 C 14,2 C 9,1 C 9,5 C 8,9 C 0,0 C 79 % 87 % 0 % 1006,3 hPa 0,0 l/m 3,2 km/h (1 Bft) SO 135 0 min 0,0 UV-I 6,3 C 8,9 C 5,5 km/h (1 Bft)
15.02.2014 15:20 9,8 C 14,2 C 9,1 C 9,3 C 8,4 C 0,0 C 79 % 87 % 0 % 1006,3 hPa 0,0 l/m 4,5 km/h (1 Bft) W-SW 247 0 min 0,0 UV-I 6,3 C 8,4 C 6,3 km/h (2 Bft)
15.02.2014 15:25 9,7 C 14,2 C 9,1 C 9,2 C 8,1 C 0,0 C 80 % 87 % 0 % 1006,3 hPa 0,0 l/m 5,3 km/h (1 Bft) SW 225 0 min 0,0 UV-I 6,4 C 7,5 C 7,6 km/h (2 Bft)
15.02.2014 15:30 9,6 C 14,3 C 9,0 C 9,0 C 7,9 C 0,0 C 80 % 87 % 0 % 1006,3 hPa 0,7 l/m 5,8 km/h (2 Bft) W-NW 292 0 min 0,0 UV-I 6,3 C 7,1 C 2,7 km/h (1 Bft)
15.02.2014 15:35 9,7 C 14,3 C 8,8 C 9,1 C 7,9 C 0,0 C 80 % 87 % 0 % 1006,3 hPa 0,0 l/m 5,5 km/h (1 Bft) SW 225 0 min 0,0 UV-I 6,4 C 7,2 C 6,9 km/h (2 Bft)
15.02.2014 15:40 9,6 C 14,3 C 8,8 C 9,1 C 8,2 C 0,0 C 81 % 87 % 0 % 1006,3 hPa 0,0 l/m 4,2 km/h (1 Bft) SO 135 0 min 0,0 UV-I 6,5 C 8,2 C 4,8 km/h (1 Bft)
15.02.2014 15:45 9,5 C 14,5 C 8,7 C 9,1 C 8,4 C 0,0 C 81 % 87 % 0 % 1006,3 hPa 0,0 l/m 3,7 km/h (1 Bft) S 180 0 min 0,0 UV-I 6,4 C 8,4 C 3,9 km/h (1 Bft)
15.02.2014 15:50 9,5 C 14,5 C 8,7 C 9,1 C 8,3 C 0,0 C 81 % 87 % 0 % 1007,0 hPa 0,0 l/m 3,2 km/h (1 Bft) SO 135 0 min 0,0 UV-I 6,4 C 8,3 C 3,5 km/h (1 Bft)
15.02.2014 15:55 9,4 C 14,5 C 8,6 C 9,0 C 8,2 C 0,0 C 81 % 87 % 0 % 1007,0 hPa 0,0 l/m 3,9 km/h (1 Bft) S-SW 202 0 min 0,0 UV-I 6,3 C 8,2 C 6,4 km/h (2 Bft)
15.02.2014 16:00 9,5 C 14,5 C 8,6 C 9,1 C 8,2 C 0,0 C 81 % 87 % 0 % 1007,0 hPa 0,0 l/m 3,7 km/h (1 Bft) W 270 0 min 0,0 UV-I 6,4 C 8,2 C 2,3 km/h (1 Bft)
15.02.2014 16:05 9,3 C 14,5 C 8,5 C 8,9 C 8,1 C 0,0 C 81 % 87 % 0 % 1007,0 hPa 0,0 l/m 3,1 km/h (1 Bft) S-SO 157 0 min 0,0 UV-I 6,2 C 8,1 C 3,2 km/h (1 Bft)
15.02.2014 16:10 9,3 C 14,5 C 8,5 C 8,9 C 8,1 C 0,0 C 81 % 87 % 0 % 1006,8 hPa 0,0 l/m 3,1 km/h (1 Bft) N-NO 22 0 min 0,0 UV-I 6,2 C 8,1 C 2,4 km/h (1 Bft)
15.02.2014 16:15 9,3 C 14,5 C 8,5 C 8,9 C 8,1 C 0,0 C 81 % 87 % 0 % 1006,8 hPa 0,0 l/m 2,7 km/h (1 Bft) SO 135 0 min 0,0 UV-I 6,2 C 8,1 C 4,8 km/h (1 Bft)
15.02.2014 16:20 9,3 C 14,6 C 8,5 C 8,9 C 8,1 C 0,0 C 81 % 88 % 0 % 1006,8 hPa 0,0 l/m 3,1 km/h (1 Bft) SO 135 0 min 0,0 UV-I 6,2 C 8,1 C 6,0 km/h (2 Bft)
15.02.2014 16:25 9,2 C 14,6 C 8,4 C 8,8 C 7,9 C 0,0 C 81 % 88 % 0 % 1006,8 hPa 0,0 l/m 3,9 km/h (1 Bft) S 180 0 min 0,0 UV-I 6,1 C 7,9 C 3,7 km/h (1 Bft)
15.02.2014 16:30 9,1 C 14,6 C 8,4 C 8,7 C 7,9 C 0,0 C 81 % 88 % 0 % 1006,7 hPa 0,0 l/m 2,9 km/h (1 Bft) SO 135 0 min 0,0 UV-I 6,0 C 7,9 C 4,5 km/h (1 Bft)
15.02.2014 16:35 9,0 C 14,6 C 8,4 C 8,6 C 7,9 C 0,0 C 82 % 88 % 0 % 1006,7 hPa 0,7 l/m 3,4 km/h (1 Bft) S 180 0 min 0,0 UV-I 6,1 C 7,9 C 8,9 km/h (2 Bft)
15.02.2014 16:40 9,0 C 14,6 C 8,4 C 8,5 C 7,4 C 0,0 C 82 % 88 % 0 % 1006,7 hPa 0,0 l/m 4,7 km/h (1 Bft) SO 135 0 min 0,0 UV-I 6,1 C 6,9 C 3,4 km/h (1 Bft)
15.02.2014 16:45 8,9 C 14,6 C 8,3 C 8,5 C 7,7 C 0,0 C 83 % 88 % 0 % 1006,7 hPa 0,0 l/m 4,2 km/h (1 Bft) S-SO 157 0 min 0,0 UV-I 6,2 C 7,7 C 6,4 km/h (2 Bft)
15.02.2014 16:50 8,9 C 14,6 C 8,2 C 8,4 C 7,4 C 0,0 C 83 % 88 % 0 % 1006,6 hPa 0,0 l/m 4,3 km/h (1 Bft) O-NO 67 0 min 0,0 UV-I 6,2 C 7,4 C 6,3 km/h (2 Bft)
15.02.2014 16:55 8,9 C 14,6 C 8,2 C 8,4 C 7,3 C 0,0 C 83 % 88 % 0 % 1006,6 hPa 0,0 l/m 4,8 km/h (1 Bft) O-SO 112 0 min 0,0 UV-I 6,2 C 6,8 C 4,5 km/h (1 Bft)
15.02.2014 17:00 8,8 C 14,5 C 8,2 C 8,4 C 7,7 C 0,0 C 83 % 88 % 0 % 1006,6 hPa 0,0 l/m 3,9 km/h (1 Bft) SW 225 0 min 0,0 UV-I 6,1 C 7,7 C 3,1 km/h (1 Bft)
15.02.2014 17:05 8,8 C 14,6 C 8,1 C 8,5 C 7,8 C 0,0 C 83 % 88 % 0 % 1006,6 hPa 0,0 l/m 3,1 km/h (1 Bft) SW 225 0 min 0,0 UV-I 6,1 C 7,8 C 0,0 km/h (0 Bft)
15.02.2014 17:10 8,7 C 14,5 C 8,1 C 8,4 C 7,7 C 0,0 C 83 % 88 % 0 % 1006,1 hPa 0,0 l/m 3,2 km/h (1 Bft) S-SO 157 0 min 0,0 UV-I 6,0 C 7,7 C 2,7 km/h (1 Bft)
15.02.2014 17:15 8,7 C 14,5 C 8,1 C 8,3 C 7,5 C 0,0 C 83 % 88 % 0 % 1006,1 hPa 0,0 l/m 4,0 km/h (1 Bft) S-SO 157 0 min 0,0 UV-I 6,0 C 7,5 C 12,1 km/h (2 Bft)
15.02.2014 17:20 8,9 C 14,5 C 8,1 C 8,3 C 7,0 C 0,0 C 83 % 88 % 0 % 1006,1 hPa 0,0 l/m 5,6 km/h (1 Bft) O-SO 112 0 min 0,0 UV-I 6,2 C 6,1 C 14,0 km/h (3 Bft)
15.02.2014 17:25 8,8 C 14,5 C 8,1 C 8,1 C 6,8 C 0,0 C 83 % 88 % 0 % 1006,1 hPa 0,0 l/m 6,6 km/h (2 Bft) S-SO 157 0 min 0,0 UV-I 6,1 C 5,6 C 16,1 km/h (3 Bft)
15.02.2014 17:30 8,8 C 14,5 C 8,1 C 8,1 C 6,8 C 0,0 C 82 % 88 % 0 % 1006,2 hPa 0,0 l/m 6,8 km/h (2 Bft) S-SO 157 0 min 0,0 UV-I 5,9 C 5,6 C 9,8 km/h (2 Bft)
15.02.2014 17:35 8,8 C 14,5 C 8,1 C 8,2 C 6,9 C 0,0 C 82 % 88 % 0 % 1006,2 hPa 0,0 l/m 6,8 km/h (2 Bft) S 180 0 min 0,0 UV-I 5,9 C 5,7 C 10,3 km/h (2 Bft)
15.02.2014 17:40 8,8 C 14,5 C 8,1 C 8,2 C 7,0 C 0,0 C 82 % 88 % 0 % 1006,2 hPa 0,0 l/m 6,1 km/h (2 Bft) S-SO 157 0 min 0,0 UV-I 5,9 C 6,0 C 7,6 km/h (2 Bft)
15.02.2014 17:45 8,8 C 14,5 C 8,1 C 8,1 C 6,8 C 0,0 C 82 % 88 % 0 % 1006,2 hPa 0,0 l/m 6,8 km/h (2 Bft) S-SO 157 0 min 0,0 UV-I 5,9 C 5,6 C 11,4 km/h (2 Bft)
15.02.2014 17:50 8,8 C 14,5 C 8,1 C 8,1 C 6,8 C 0,0 C 82 % 88 % 0 % 1006,3 hPa 0,0 l/m 6,6 km/h (2 Bft) SO 135 0 min 0,0 UV-I 5,9 C 5,6 C 7,4 km/h (2 Bft)
15.02.2014 17:55 8,8 C 14,5 C 8,1 C 8,2 C 6,9 C 0,0 C 82 % 88 % 0 % 1006,3 hPa 0,0 l/m 6,1 km/h (2 Bft) SO 135 0 min 0,0 UV-I 5,9 C 5,9 C 8,0 km/h (2 Bft)
15.02.2014 18:00 8,9 C 14,5 C 8,1 C 8,2 C 6,7 C 0,0 C 81 % 88 % 0 % 1006,3 hPa 0,0 l/m 6,8 km/h (2 Bft) S 180 0 min 0,0 UV-I 5,8 C 5,4 C 11,7 km/h (2 Bft)
15.02.2014 18:05 8,8 C 14,5 C 8,2 C 8,1 C 6,6 C 0,0 C 81 % 88 % 0 % 1006,3 hPa 0,0 l/m 6,8 km/h (2 Bft) SO 135 0 min 0,0 UV-I 5,7 C 5,3 C 5,6 km/h (1 Bft)
15.02.2014 18:10 8,8 C 14,5 C 8,1 C 8,2 C 7,1 C 0,0 C 82 % 88 % 0 % 1006,9 hPa 0,0 l/m 4,8 km/h (1 Bft) S-SW 202 0 min 0,0 UV-I 5,9 C 6,5 C 2,1 km/h (1 Bft)
15.02.2014 18:15 8,7 C 14,6 C 8,0 C 8,3 C 7,6 C 0,0 C 82 % 88 % 0 % 1006,9 hPa 0,0 l/m 3,1 km/h (1 Bft) N-NO 22 0 min 0,0 UV-I 5,8 C 7,6 C 3,9 km/h (1 Bft)
15.02.2014 18:20 8,7 C 14,6 C 8,0 C 8,3 C 7,5 C 0,0 C 82 % 88 % 0 % 1006,9 hPa 0,0 l/m 3,1 km/h (1 Bft) S-SO 157 0 min 0,0 UV-I 5,8 C 7,5 C 8,2 km/h (2 Bft)
15.02.2014 18:25 8,6 C 14,6 C 8,0 C 8,2 C 7,4 C 0,0 C 82 % 88 % 0 % 1006,9 hPa 0,0 l/m 3,5 km/h (1 Bft) S 180 0 min 0,0 UV-I 5,7 C 7,4 C 3,9 km/h (1 Bft)
15.02.2014 18:30 8,7 C 14,7 C 8,0 C 8,3 C 7,4 C 0,0 C 83 % 88 % 0 % 1007,1 hPa 0,0 l/m 3,5 km/h (1 Bft) O 90 0 min 0,0 UV-I 6,0 C 7,4 C 7,4 km/h (2 Bft)
15.02.2014 18:35 8,5 C 14,7 C 8,0 C 8,1 C 7,3 C 0,0 C 83 % 88 % 0 % 1007,1 hPa 0,0 l/m 3,7 km/h (1 Bft) O-NO 67 0 min 0,0 UV-I 5,8 C 7,3 C 5,3 km/h (1 Bft)
15.02.2014 18:41 8,4 C 14,7 C 7,9 C 8,0 C 7,2 C 0,0 C 84 % 88 % 0 % 1007,1 hPa 0,0 l/m 4,0 km/h (1 Bft) N 0 0 min 0,0 UV-I 5,9 C 7,2 C 9,0 km/h (2 Bft)
15.02.2014 18:59 8,3 C 14,7 C 7,9 C 7,7 C 6,4 C 0,0 C 84 % 88 % 0 % 1006,9 hPa 0,0 l/m 6,1 km/h (2 Bft) S-SO 157 0 min 0,0 UV-I 5,8 C 5,3 C 7,9 km/h (2 Bft)
15.02.2014 19:00 8,3 C 14,7 C 7,9 C 7,7 C 6,4 C 0,0 C 84 % 88 % 0 % 1006,9 hPa 0,0 l/m 6,1 km/h (2 Bft) S-SO 157 0 min 0,0 UV-I 5,8 C 5,3 C 7,9 km/h (2 Bft)
15.02.2014 19:05 8,2 C 14,7 C 7,7 C 7,7 C 6,7 C 0,0 C 84 % 88 % 0 % 1006,9 hPa 0,0 l/m 5,1 km/h (1 Bft) SO 135 0 min 0,0 UV-I 5,7 C 6,0 C 3,9 km/h (1 Bft)
15.02.2014 19:10 8,0 C 14,7 C 7,6 C 7,8 C 7,4 C 0,0 C 84 % 88 % 0 % 1007,5 hPa 0,7 l/m 3,5 km/h (1 Bft) W-NW 292 0 min 0,0 UV-I 5,5 C 7,4 C 0,0 km/h (0 Bft)
15.02.2014 19:15 8,1 C 14,7 C 7,6 C 7,8 C 7,3 C 0,0 C 85 % 88 % 0 % 1007,5 hPa 0,0 l/m 3,2 km/h (1 Bft) SW 225 0 min 0,0 UV-I 5,7 C 7,3 C 5,0 km/h (1 Bft)
15.02.2014 19:20 7,9 C 14,8 C 7,6 C 7,6 C 7,0 C 0,0 C 85 % 88 % 0 % 1007,5 hPa 0,0 l/m 4,0 km/h (1 Bft) SO 135 0 min 0,0 UV-I 5,5 C 7,0 C 6,1 km/h (2 Bft)
15.02.2014 19:25 7,9 C 14,7 C 7,6 C 7,5 C 6,8 C 0,0 C 85 % 88 % 0 % 1007,5 hPa 0,0 l/m 4,7 km/h (1 Bft) S 180 0 min 0,0 UV-I 5,5 C 6,2 C 5,0 km/h (1 Bft)
15.02.2014 19:30 7,7 C 14,7 C 7,5 C 7,3 C 6,6 C 0,0 C 85 % 88 % 0 % 1007,1 hPa 0,0 l/m 5,1 km/h (1 Bft) SW 225 0 min 0,0 UV-I 5,3 C 5,9 C 6,1 km/h (2 Bft)
15.02.2014 19:35 7,7 C 14,7 C 7,5 C 7,3 C 6,4 C 0,0 C 85 % 88 % 0 % 1007,1 hPa 0,0 l/m 5,6 km/h (1 Bft) SO 135 0 min 0,0 UV-I 5,3 C 5,5 C 5,5 km/h (1 Bft)
15.02.2014 19:40 7,7 C 14,7 C 7,5 C 7,3 C 6,6 C 0,0 C 85 % 88 % 0 % 1007,1 hPa 0,0 l/m 5,0 km/h (1 Bft) SO 135 0 min 0,0 UV-I 5,3 C 5,9 C 3,7 km/h (1 Bft)
15.02.2014 19:45 7,6 C 14,7 C 7,5 C 7,3 C 6,7 C 0,0 C 85 % 88 % 0 % 1007,1 hPa 0,0 l/m 4,8 km/h (1 Bft) S 180 0 min 0,0 UV-I 5,2 C 6,1 C 6,0 km/h (2 Bft)
15.02.2014 19:50 7,7 C 14,7 C 7,4 C 7,3 C 6,4 C 0,0 C 85 % 88 % 0 % 1007,3 hPa 0,0 l/m 5,5 km/h (1 Bft) S-SO 157 0 min 0,0 UV-I 5,3 C 5,5 C 6,9 km/h (2 Bft)
15.02.2014 19:55 7,6 C 14,7 C 7,5 C 7,1 C 6,2 C 0,0 C 85 % 88 % 0 % 1007,3 hPa 0,0 l/m 6,1 km/h (2 Bft) SO 135 0 min 0,0 UV-I 5,2 C 5,1 C 11,9 km/h (2 Bft)
15.02.2014 20:00 7,7 C 14,7 C 7,5 C 7,2 C 6,1 C 0,0 C 85 % 88 % 0 % 1007,3 hPa 0,0 l/m 6,1 km/h (2 Bft) S 180 0 min 0,0 UV-I 5,3 C 5,0 C 5,0 km/h (1 Bft)
15.02.2014 20:05 7,7 C 14,7 C 7,4 C 7,2 C 6,3 C 0,0 C 85 % 88 % 0 % 1007,3 hPa 0,0 l/m 5,6 km/h (1 Bft) S-SO 157 0 min 0,0 UV-I 5,3 C 5,3 C 7,7 km/h (2 Bft)
15.02.2014 20:10 7,9 C 14,7 C 7,4 C 7,3 C 6,1 C 0,0 C 85 % 88 % 0 % 1006,9 hPa 0,0 l/m 6,3 km/h (2 Bft) SO 135 0 min 0,0 UV-I 5,5 C 4,9 C 7,9 km/h (2 Bft)
15.02.2014 20:15 7,8 C 14,6 C 7,4 C 7,1 C 5,7 C 0,0 C 84 % 88 % 0 % 1006,9 hPa 0,0 l/m 7,4 km/h (2 Bft) W-SW 247 0 min 0,0 UV-I 5,3 C 4,1 C 11,9 km/h (2 Bft)
15.02.2014 20:20 8,0 C 14,6 C 7,5 C 7,4 C 5,6 C 0,0 C 83 % 88 % 0 % 1006,9 hPa 0,0 l/m 7,9 km/h (2 Bft) O-SO 112 0 min 0,0 UV-I 5,3 C 3,9 C 16,3 km/h (3 Bft)
15.02.2014 20:25 8,0 C 14,6 C 7,5 C 7,4 C 5,7 C 0,0 C 83 % 88 % 0 % 1006,9 hPa 0,0 l/m 7,7 km/h (2 Bft) SW 225 0 min 0,0 UV-I 5,3 C 4,0 C 6,0 km/h (2 Bft)
15.02.2014 20:30 8,1 C 14,6 C 7,6 C 7,4 C 5,9 C 0,0 C 83 % 88 % 0 % 1007,2 hPa 0,0 l/m 6,6 km/h (2 Bft) N-NW 337 0 min 0,0 UV-I 5,4 C 4,6 C 9,3 km/h (2 Bft)
15.02.2014 20:35 8,1 C 14,6 C 7,6 C 7,3 C 5,8 C 0,0 C 82 % 88 % 0 % 1007,2 hPa 0,0 l/m 7,2 km/h (2 Bft) NW 315 0 min 0,0 UV-I 5,2 C 4,3 C 3,7 km/h (1 Bft)
15.02.2014 20:40 8,1 C 14,6 C 7,6 C 7,5 C 6,2 C 0,0 C 82 % 88 % 0 % 1007,2 hPa 0,0 l/m 6,0 km/h (2 Bft) O-SO 112 0 min 0,0 UV-I 5,2 C 5,1 C 3,7 km/h (1 Bft)
15.02.2014 20:45 8,1 C 14,6 C 7,7 C 7,7 C 6,8 C 0,0 C 82 % 88 % 0 % 1007,2 hPa 0,0 l/m 4,2 km/h (1 Bft) SO 135 0 min 0,0 UV-I 5,2 C 6,8 C 8,0 km/h (2 Bft)
15.02.2014 20:50 8,1 C 14,6 C 7,6 C 7,8 C 7,1 C 0,0 C 82 % 88 % 0 % 1007,3 hPa 0,0 l/m 3,2 km/h (1 Bft) O-NO 67 0 min 0,0 UV-I 5,2 C 7,1 C 3,4 km/h (1 Bft)
15.02.2014 20:55 8,0 C 14,6 C 7,6 C 7,7 C 7,1 C 0,0 C 82 % 88 % 0 % 1007,3 hPa 0,0 l/m 3,4 km/h (1 Bft) S 180 0 min 0,0 UV-I 5,1 C 7,1 C 2,9 km/h (1 Bft)
15.02.2014 21:00 8,1 C 14,6 C 7,6 C 7,6 C 6,7 C 0,0 C 82 % 88 % 0 % 1007,3 hPa 0,0 l/m 4,0 km/h (1 Bft) N-NO 22 0 min 0,0 UV-I 5,2 C 6,7 C 3,4 km/h (1 Bft)
15.02.2014 21:05 8,1 C 14,6 C 7,7 C 7,7 C 6,8 C 0,0 C 82 % 88 % 0 % 1007,3 hPa 0,0 l/m 3,9 km/h (1 Bft) W-SW 247 0 min 0,0 UV-I 5,2 C 6,8 C 2,9 km/h (1 Bft)
15.02.2014 21:10 8,0 C 14,6 C 7,6 C 7,6 C 6,8 C 0,0 C 82 % 88 % 0 % 1008,1 hPa 0,0 l/m 3,5 km/h (1 Bft) S 180 0 min 0,0 UV-I 5,1 C 6,8 C 6,6 km/h (2 Bft)
15.02.2014 21:15 8,0 C 14,6 C 7,5 C 7,5 C 6,6 C 0,0 C 82 % 87 % 0 % 1008,1 hPa 0,0 l/m 3,9 km/h (1 Bft) NO 45 0 min 0,0 UV-I 5,1 C 6,6 C 5,8 km/h (2 Bft)
15.02.2014 21:20 8,0 C 14,6 C 7,5 C 7,4 C 6,3 C 0,0 C 82 % 87 % 0 % 1008,1 hPa 0,0 l/m 4,5 km/h (1 Bft) O-NO 67 0 min 0,0 UV-I 5,1 C 6,3 C 5,0 km/h (1 Bft)
15.02.2014 21:25 8,1 C 14,6 C 7,6 C 7,5 C 6,2 C 0,0 C 82 % 87 % 0 % 1008,1 hPa 0,0 l/m 4,7 km/h (1 Bft) NW 315 0 min 0,0 UV-I 5,2 C 5,6 C 6,4 km/h (2 Bft)
15.02.2014 21:30 8,1 C 14,6 C 7,5 C 7,4 C 6,1 C 0,0 C 82 % 87 % 0 % 1008,8 hPa 0,0 l/m 5,1 km/h (1 Bft) O 90 0 min 0,0 UV-I 5,2 C 5,3 C 3,1 km/h (1 Bft)
15.02.2014 21:35 8,0 C 14,6 C 7,5 C 7,4 C 6,2 C 0,0 C 82 % 87 % 0 % 1008,8 hPa 0,0 l/m 4,7 km/h (1 Bft) NO 45 0 min 0,0 UV-I 5,1 C 5,6 C 6,3 km/h (2 Bft)
15.02.2014 21:40 8,0 C 14,7 C 7,4 C 7,6 C 6,7 C 0,0 C 82 % 87 % 0 % 1008,8 hPa 0,0 l/m 3,5 km/h (1 Bft) S 180 0 min 0,0 UV-I 5,1 C 6,7 C 6,3 km/h (2 Bft)
15.02.2014 21:45 8,1 C 14,7 C 7,4 C 7,6 C 6,7 C 0,0 C 82 % 87 % 0 % 1008,8 hPa 0,0 l/m 3,5 km/h (1 Bft) O-NO 67 0 min 0,0 UV-I 5,2 C 6,7 C 2,7 km/h (1 Bft)
15.02.2014 21:50 7,9 C 14,7 C 7,2 C 7,5 C 6,7 C 0,0 C 82 % 87 % 0 % 1008,5 hPa 0,7 l/m 3,2 km/h (1 Bft) NO 45 0 min 0,0 UV-I 5,0 C 6,7 C 4,0 km/h (1 Bft)
15.02.2014 21:55 7,9 C 14,7 C 7,2 C 7,5 C 6,7 C 0,0 C 82 % 87 % 0 % 1008,5 hPa 0,0 l/m 3,2 km/h (1 Bft) W 270 0 min 0,0 UV-I 5,0 C 6,7 C 3,7 km/h (1 Bft)
15.02.2014 22:00 7,9 C 14,6 C 7,2 C 7,5 C 6,6 C 0,0 C 82 % 88 % 0 % 1008,5 hPa 0,0 l/m 2,6 km/h (1 Bft) S-SO 157 0 min 0,0 UV-I 5,0 C 6,6 C 11,9 km/h (2 Bft)
15.02.2014 22:05 7,8 C 14,7 C 7,1 C 7,4 C 6,6 C 0,0 C 82 % 88 % 0 % 1008,5 hPa 0,0 l/m 2,7 km/h (1 Bft) NO 45 0 min 0,0 UV-I 4,9 C 6,6 C 3,4 km/h (1 Bft)
15.02.2014 22:10 7,7 C 14,7 C 7,1 C 7,3 C 6,5 C 0,0 C 83 % 88 % 0 % 1008,4 hPa 0,0 l/m 3,5 km/h (1 Bft) SO 135 0 min 0,0 UV-I 5,0 C 6,5 C 4,7 km/h (1 Bft)
15.02.2014 22:15 7,6 C 14,7 C 7,0 C 7,2 C 6,4 C 0,0 C 83 % 88 % 0 % 1008,4 hPa 0,0 l/m 3,9 km/h (1 Bft) S 180 0 min 0,0 UV-I 4,9 C 6,4 C 6,8 km/h (2 Bft)
15.02.2014 22:20 7,6 C 14,7 C 7,1 C 7,0 C 5,9 C 0,0 C 83 % 88 % 0 % 1008,4 hPa 0,0 l/m 4,7 km/h (1 Bft) S-SW 202 0 min 0,0 UV-I 4,9 C 5,2 C 4,8 km/h (1 Bft)
15.02.2014 22:25 7,6 C 14,7 C 7,1 C 6,9 C 5,6 C 0,0 C 83 % 88 % 0 % 1008,4 hPa 0,0 l/m 5,5 km/h (1 Bft) SO 135 0 min 0,0 UV-I 4,9 C 4,6 C 6,4 km/h (2 Bft)
15.02.2014 22:30 7,5 C 14,7 C 6,9 C 6,8 C 5,3 C 0,0 C 83 % 88 % 0 % 1007,9 hPa 0,0 l/m 6,3 km/h (2 Bft) S 180 0 min 0,0 UV-I 4,8 C 4,0 C 6,9 km/h (2 Bft)
15.02.2014 22:35 7,5 C 14,6 C 6,9 C 6,8 C 5,5 C 0,0 C 83 % 88 % 0 % 1007,9 hPa 0,0 l/m 5,8 km/h (2 Bft) SO 135 0 min 0,0 UV-I 4,8 C 4,4 C 8,9 km/h (2 Bft)
15.02.2014 22:40 7,5 C 14,7 C 6,9 C 6,9 C 5,8 C 0,0 C 83 % 88 % 0 % 1007,9 hPa 0,0 l/m 5,0 km/h (1 Bft) S 180 0 min 0,0 UV-I 4,8 C 5,0 C 0,0 km/h (0 Bft)
15.02.2014 22:45 7,5 C 14,7 C 6,9 C 7,0 C 5,9 C 0,0 C 83 % 88 % 0 % 1007,9 hPa 0,0 l/m 4,5 km/h (1 Bft) SO 135 0 min 0,0 UV-I 4,8 C 5,9 C 5,5 km/h (1 Bft)
15.02.2014 22:50 7,5 C 14,6 C 6,9 C 7,1 C 6,4 C 0,0 C 83 % 88 % 0 % 1008,0 hPa 0,0 l/m 3,4 km/h (1 Bft) N 360 0 min 0,0 UV-I 4,8 C 6,4 C 2,6 km/h (1 Bft)
15.02.2014 22:55 7,4 C 14,6 C 6,8 C 7,1 C 6,4 C 0,0 C 83 % 88 % 0 % 1008,0 hPa 0,0 l/m 3,2 km/h (1 Bft) S-SW 202 0 min 0,0 UV-I 4,7 C 6,4 C 3,7 km/h (1 Bft)
15.02.2014 23:00 7,5 C 14,5 C 6,9 C 7,2 C 6,5 C 0,0 C 83 % 88 % 0 % 1008,0 hPa 0,0 l/m 2,9 km/h (1 Bft) O-SO 112 0 min 0,0 UV-I 4,8 C 6,5 C 7,4 km/h (2 Bft)
15.02.2014 23:05 7,4 C 14,5 C 7,0 C 7,1 C 6,4 C 0,0 C 83 % 88 % 0 % 1008,0 hPa 0,0 l/m 3,9 km/h (1 Bft) S 180 0 min 0,0 UV-I 4,7 C 6,4 C 2,6 km/h (1 Bft)
15.02.2014 23:10 7,4 C 14,5 C 6,9 C 7,0 C 6,3 C 0,0 C 83 % 88 % 0 % 1008,6 hPa 0,0 l/m 4,0 km/h (1 Bft) W-NW 292 0 min 0,0 UV-I 4,7 C 6,3 C 4,8 km/h (1 Bft)
15.02.2014 23:15 7,5 C 14,5 C 7,1 C 7,2 C 6,6 C 0,0 C 82 % 88 % 0 % 1008,6 hPa 0,0 l/m 3,7 km/h (1 Bft) O-SO 112 0 min 0,0 UV-I 4,6 C 6,6 C 3,2 km/h (1 Bft)
15.02.2014 23:20 7,5 C 14,4 C 7,1 C 7,0 C 6,1 C 0,0 C 82 % 88 % 0 % 1008,6 hPa 0,0 l/m 4,8 km/h (1 Bft) SW 225 0 min 0,0 UV-I 4,6 C 5,4 C 6,0 km/h (2 Bft)
15.02.2014 23:25 7,5 C 14,4 C 7,1 C 7,0 C 6,1 C 0,0 C 81 % 88 % 0 % 1008,6 hPa 0,0 l/m 5,0 km/h (1 Bft) S-SW 202 0 min 0,0 UV-I 4,5 C 5,3 C 13,0 km/h (3 Bft)
15.02.2014 23:30 7,5 C 14,5 C 7,1 C 7,0 C 6,1 C 0,0 C 81 % 88 % 0 % 1008,6 hPa 0,0 l/m 4,8 km/h (1 Bft) SO 135 0 min 0,0 UV-I 4,5 C 5,4 C 16,6 km/h (3 Bft)
15.02.2014 23:35 7,5 C 14,4 C 7,0 C 7,0 C 6,1 C 0,0 C 81 % 88 % 0 % 1008,6 hPa 0,0 l/m 4,8 km/h (1 Bft) O 90 0 min 0,0 UV-I 4,5 C 5,4 C 4,0 km/h (1 Bft)
15.02.2014 23:40 7,5 C 14,5 C 6,9 C 7,0 C 6,0 C 0,0 C 81 % 87 % 0 % 1008,6 hPa 0,0 l/m 5,3 km/h (1 Bft) SW 225 0 min 0,0 UV-I 4,5 C 5,1 C 9,5 km/h (2 Bft)
15.02.2014 23:45 7,5 C 14,4 C 6,9 C 7,0 C 6,1 C 0,0 C 80 % 87 % 0 % 1008,6 hPa 0,0 l/m 5,1 km/h (1 Bft) S 180 0 min 0,0 UV-I 4,3 C 5,3 C 3,9 km/h (1 Bft)
15.02.2014 23:50 7,4 C 14,4 C 6,9 C 7,0 C 6,2 C 0,0 C 80 % 87 % 0 % 1008,2 hPa 0,0 l/m 4,8 km/h (1 Bft) SO 135 0 min 0,0 UV-I 4,2 C 5,5 C 7,1 km/h (2 Bft)
15.02.2014 23:55 7,5 C 14,4 C 6,9 C 7,1 C 6,3 C 0,0 C 80 % 87 % 0 % 1008,2 hPa 0,0 l/m 4,3 km/h (1 Bft) S-SW 202 0 min 0,0 UV-I 4,3 C 6,3 C 4,2 km/h (1 Bft)
_ Min-Zeit 00:00 03:55 03:20 00:00 22:30 00:10 02:20 02:35 00:00 04:10 - 07:20 - - - 00:00 02:20 20:20 00:00
Minimum _ 6,0 C 12,9 C 4,8 C 6,1 C 5,3 C 0,0 C 55 % 61 % 0 % 1004,2 hPa - 0,0 km/h (0 Bft) - - - 0,0 UV-I -2,0 C 3,9 C 0,0 km/h (0 Bft)
_ Max-Zeit 12:35 19:20 12:20 12:30 12:30 12:20 19:15 16:20 12:20 00:00 14:05 20:20 - - 00:00 00:00 15:40 12:30 23:30
Maximum _ 12,7 C 14,8 C 11,6 C 13,2 C 13,2 C 0,6 C 85 % 88 % 16 % 1008,8 hPa 0,7 l/m 7,9 km/h
O-SO (2 Bft)
- - 0 min 0,0 UV-I 6,5 C 13,2 C 16,6 km/h
SO (3 Bft)
Durchschnitt _ 8,7 C 13,7 C 7,7 C 8,4 C 7,9 C 0,1 C 68 % 75 % 1 % 1006,3 hPa #3,4 l/m 3,2 km/h (1 Bft) SO - #0 min. 0,0 UV-I 2,9 C 7,7 C 4,4 km/h (1 Bft)
2014 www.wetterstation-wechselburg.de